Raleigh, NC (27617)

11:07 AM EST on February 07, 2016 (GMT -0500)
Village at Westgate | | Change Station
CLOSE
Current Station
Personal Weather Station
Location: Raleigh, NC
Elevation: 478 ft
Nearby Weather Stations

Elev 478 ft 35.90 °N, 78.73 °W | Updated 4 minutes ago

Overcast
Overcast
39.1 °F
Feels Like 39 °F
N
3.0
Wind Variable Wind from NE
Gusts 6.0 mph

Today
High -- | Low -- °F
--% Chance of Precip.
Yesterday
High -- | Low -- °F
Precip. -- in
Pressure 30.05 in
Visibility 10.0 miles
Clouds Few 8000 ft
Overcast 10000 ft
Windchill 39 °F
Dew Point 26 °F
Humidity 59%
Rainfall 0.00 in
Snow Depth Not available.
7:10 AM 5:48 PM
Waning Crescent, 1% visible
METAR KRDU 071551Z VRB05KT 10SM FEW080 OVC100 04/M05 A3004 RMK AO2 SLP175 T00391050 $
Pressure 30.05 in
Visibility 10.0 miles
Clouds Few 8000 ft
Overcast 10000 ft
Windchill 39 °F
Dew Point 26 °F
Humidity 59%
Rainfall 0.00 in
Snow Depth Not available.
7:10 AM 5:48 PM
Waning Crescent, 1% visible
METAR KRDU 071551Z VRB05KT 10SM FEW080 OVC100 04/M05 A3004 RMK AO2 SLP175 T00391050 $

10-Day Weather Forecast

Almanac

Astronomy

Feb. 07, 2016 Rise Set
Actual Time
Civil Twilight
Nautical Twilight
Astronomical Twilight
Moon
Length of Visible Light
Length of Day
Tomorrow will be .
, % of the Moon is Illuminated

Today's Extremes

State Highs State Lows

Community

WunderPhotos

Upload Photos

1,891,218 photos uploaded!

WunderBlog® & News

Nearby

Air Quality

  Air Quality AQ Index Pollutant
Not available.

Snow Depth

Station Depth Elevation

Earthquake Activity

City Distance Mag. Time & Date
Minimum magnitude displayed is 2.5.

Coastal Water Temperatures

Place Temperature

Stations

Nearby Weather Stations

Station Location Temp. Windchill Dew Point Humidity Wind Precip. Elev Updated Type
                   

Watches & Warnings

There are currently no watches in effect.